sensor_id;sensor_type;location;lat;lon;timestamp;P1;durP1;ratioP1;P2;durP2;ratioP2
13067;SDS011;6600;51.362;6.686;2023-06-14T00:00:30;3.10;;;2.80;;
13067;SDS011;6600;51.362;6.686;2023-06-14T00:02:56;4.33;;;2.73;;
13067;SDS011;6600;51.362;6.686;2023-06-14T00:05:22;3.63;;;2.70;;
13067;SDS011;6600;51.362;6.686;2023-06-14T00:07:48;5.17;;;3.07;;
13067;SDS011;6600;51.362;6.686;2023-06-14T00:10:14;3.53;;;2.73;;
13067;SDS011;6600;51.362;6.686;2023-06-14T00:12:40;2.90;;;2.43;;
13067;SDS011;6600;51.362;6.686;2023-06-14T00:15:06;3.20;;;2.63;;
13067;SDS011;6600;51.362;6.686;2023-06-14T00:17:34;3.37;;;2.40;;
13067;SDS011;6600;51.362;6.686;2023-06-14T00:20:02;3.37;;;2.90;;
13067;SDS011;6600;51.362;6.686;2023-06-14T00:22:30;2.80;;;2.57;;
13067;SDS011;6600;51.362;6.686;2023-06-14T00:24:57;3.80;;;2.90;;
13067;SDS011;6600;51.362;6.686;2023-06-14T00:27:23;3.30;;;2.90;;
13067;SDS011;6600;51.362;6.686;2023-06-14T00:29:48;5.40;;;4.33;;
13067;SDS011;6600;51.362;6.686;2023-06-14T00:32:13;6.10;;;3.80;;
13067;SDS011;6600;51.362;6.686;2023-06-14T00:34:39;5.60;;;3.80;;
13067;SDS011;6600;51.362;6.686;2023-06-14T00:37:04;4.87;;;2.80;;
13067;SDS011;6600;51.362;6.686;2023-06-14T00:39:30;8.30;;;3.70;;
13067;SDS011;6600;51.362;6.686;2023-06-14T00:41:55;3.80;;;3.10;;
13067;SDS011;6600;51.362;6.686;2023-06-14T00:44:20;5.23;;;3.37;;
13067;SDS011;6600;51.362;6.686;2023-06-14T00:46:46;6.47;;;3.10;;
13067;SDS011;6600;51.362;6.686;2023-06-14T00:49:13;4.10;;;3.10;;
13067;SDS011;6600;51.362;6.686;2023-06-14T00:51:40;3.20;;;2.57;;
13067;SDS011;6600;51.362;6.686;2023-06-14T00:54:07;3.43;;;2.53;;
13067;SDS011;6600;51.362;6.686;2023-06-14T00:56:32;3.70;;;2.67;;
13067;SDS011;6600;51.362;6.686;2023-06-14T00:58:58;2.93;;;2.53;;
13067;SDS011;6600;51.362;6.686;2023-06-14T01:01:23;3.77;;;2.67;;
13067;SDS011;6600;51.362;6.686;2023-06-14T01:03:49;4.57;;;3.30;;
13067;SDS011;6600;51.362;6.686;2023-06-14T01:06:31;2.73;;;2.40;;
13067;SDS011;6600;51.362;6.686;2023-06-14T01:12:14;7.30;;;3.37;;
13067;SDS011;6600;51.362;6.686;2023-06-14T01:14:44;3.30;;;2.97;;
13067;SDS011;6600;51.362;6.686;2023-06-14T01:17:13;4.67;;;3.20;;
13067;SDS011;6600;51.362;6.686;2023-06-14T01:19:42;4.97;;;3.37;;
13067;SDS011;6600;51.362;6.686;2023-06-14T01:22:08;6.30;;;3.67;;
13067;SDS011;6600;51.362;6.686;2023-06-14T01:24:33;3.50;;;3.17;;
13067;SDS011;6600;51.362;6.686;2023-06-14T01:26:59;2.83;;;2.60;;
13067;SDS011;6600;51.362;6.686;2023-06-14T01:29:27;3.07;;;2.77;;
13067;SDS011;6600;51.362;6.686;2023-06-14T01:31:58;4.83;;;2.93;;
13067;SDS011;6600;51.362;6.686;2023-06-14T01:34:24;5.03;;;3.37;;
13067;SDS011;6600;51.362;6.686;2023-06-14T01:36:53;6.10;;;3.80;;
13067;SDS011;6600;51.362;6.686;2023-06-14T01:39:22;6.33;;;3.77;;
13067;SDS011;6600;51.362;6.686;2023-06-14T01:41:49;6.80;;;4.63;;
13067;SDS011;6600;51.362;6.686;2023-06-14T01:44:17;12.07;;;4.63;;
13067;SDS011;6600;51.362;6.686;2023-06-14T01:46:46;9.23;;;4.10;;
13067;SDS011;6600;51.362;6.686;2023-06-14T01:49:13;6.00;;;3.83;;
13067;SDS011;6600;51.362;6.686;2023-06-14T01:51:38;6.00;;;3.57;;
13067;SDS011;6600;51.362;6.686;2023-06-14T01:54:04;6.17;;;3.30;;
13067;SDS011;6600;51.362;6.686;2023-06-14T01:56:30;7.17;;;3.50;;
13067;SDS011;6600;51.362;6.686;2023-06-14T01:58:55;3.40;;;2.60;;
13067;SDS011;6600;51.362;6.686;2023-06-14T02:01:21;6.23;;;3.70;;
13067;SDS011;6600;51.362;6.686;2023-06-14T02:03:47;4.37;;;2.90;;
13067;SDS011;6600;51.362;6.686;2023-06-14T02:06:14;7.40;;;3.10;;
13067;SDS011;6600;51.362;6.686;2023-06-14T02:08:41;4.03;;;3.07;;
13067;SDS011;6600;51.362;6.686;2023-06-14T02:11:06;3.90;;;3.33;;
13067;SDS011;6600;51.362;6.686;2023-06-14T02:13:32;3.83;;;2.90;;
13067;SDS011;6600;51.362;6.686;2023-06-14T02:15:57;3.43;;;3.00;;
13067;SDS011;6600;51.362;6.686;2023-06-14T02:18:24;3.50;;;2.50;;
13067;SDS011;6600;51.362;6.686;2023-06-14T02:20:50;3.37;;;2.70;;
13067;SDS011;6600;51.362;6.686;2023-06-14T02:23:15;2.83;;;2.30;;
13067;SDS011;6600;51.362;6.686;2023-06-14T02:25:41;3.70;;;2.50;;
13067;SDS011;6600;51.362;6.686;2023-06-14T02:28:06;2.97;;;2.27;;
13067;SDS011;6600;51.362;6.686;2023-06-14T02:30:31;2.33;;;2.13;;
13067;SDS011;6600;51.362;6.686;2023-06-14T02:32:59;2.37;;;2.17;;
13067;SDS011;6600;51.362;6.686;2023-06-14T02:35:25;3.90;;;2.30;;
13067;SDS011;6600;51.362;6.686;2023-06-14T02:37:52;2.87;;;2.57;;
13067;SDS011;6600;51.362;6.686;2023-06-14T02:40:18;3.63;;;3.00;;
13067;SDS011;6600;51.362;6.686;2023-06-14T02:42:43;2.73;;;2.50;;
13067;SDS011;6600;51.362;6.686;2023-06-14T02:45:09;3.23;;;2.20;;
13067;SDS011;6600;51.362;6.686;2023-06-14T02:47:34;3.73;;;2.70;;
13067;SDS011;6600;51.362;6.686;2023-06-14T02:50:00;5.77;;;3.17;;
13067;SDS011;6600;51.362;6.686;2023-06-14T02:52:25;3.90;;;2.93;;
13067;SDS011;6600;51.362;6.686;2023-06-14T02:54:51;2.80;;;2.10;;
13067;SDS011;6600;51.362;6.686;2023-06-14T02:57:17;4.50;;;2.83;;
13067;SDS011;6600;51.362;6.686;2023-06-14T02:59:42;3.40;;;2.20;;
13067;SDS011;6600;51.362;6.686;2023-06-14T03:02:07;3.57;;;2.37;;
13067;SDS011;6600;51.362;6.686;2023-06-14T03:04:33;3.27;;;2.57;;
13067;SDS011;6600;51.362;6.686;2023-06-14T03:07:02;3.90;;;2.20;;
13067;SDS011;6600;51.362;6.686;2023-06-14T03:09:34;3.37;;;2.30;;
13067;SDS011;6600;51.362;6.686;2023-06-14T03:12:01;3.40;;;2.30;;
13067;SDS011;6600;51.362;6.686;2023-06-14T03:14:27;3.87;;;2.50;;
13067;SDS011;6600;51.362;6.686;2023-06-14T03:16:54;3.07;;;2.37;;
13067;SDS011;6600;51.362;6.686;2023-06-14T03:19:21;3.30;;;1.90;;
13067;SDS011;6600;51.362;6.686;2023-06-14T03:21:51;3.40;;;2.27;;
13067;SDS011;6600;51.362;6.686;2023-06-14T03:24:17;3.70;;;2.20;;
13067;SDS011;6600;51.362;6.686;2023-06-14T03:26:42;3.40;;;2.60;;
13067;SDS011;6600;51.362;6.686;2023-06-14T03:29:08;4.77;;;2.17;;
13067;SDS011;6600;51.362;6.686;2023-06-14T03:31:34;3.27;;;2.73;;
13067;SDS011;6600;51.362;6.686;2023-06-14T03:34:00;4.13;;;2.10;;
13067;SDS011;6600;51.362;6.686;2023-06-14T03:36:25;2.73;;;2.13;;
13067;SDS011;6600;51.362;6.686;2023-06-14T03:38:51;3.43;;;2.10;;
13067;SDS011;6600;51.362;6.686;2023-06-14T03:41:16;2.50;;;2.27;;
13067;SDS011;6600;51.362;6.686;2023-06-14T03:43:42;2.30;;;2.10;;
13067;SDS011;6600;51.362;6.686;2023-06-14T03:46:07;1.83;;;1.70;;
13067;SDS011;6600;51.362;6.686;2023-06-14T03:48:32;2.90;;;2.03;;
13067;SDS011;6600;51.362;6.686;2023-06-14T03:50:58;2.40;;;2.20;;
13067;SDS011;6600;51.362;6.686;2023-06-14T03:53:23;2.07;;;1.90;;
13067;SDS011;6600;51.362;6.686;2023-06-14T03:55:49;4.57;;;2.20;;
13067;SDS011;6600;51.362;6.686;2023-06-14T03:58:17;3.17;;;2.20;;
13067;SDS011;6600;51.362;6.686;2023-06-14T04:00:42;2.00;;;1.87;;
13067;SDS011;6600;51.362;6.686;2023-06-14T04:03:08;2.80;;;2.20;;
13067;SDS011;6600;51.362;6.686;2023-06-14T04:05:33;2.80;;;1.97;;
13067;SDS011;6600;51.362;6.686;2023-06-14T04:07:59;2.57;;;2.00;;
13067;SDS011;6600;51.362;6.686;2023-06-14T04:10:25;2.60;;;2.03;;
13067;SDS011;6600;51.362;6.686;2023-06-14T04:12:51;2.90;;;1.90;;
13067;SDS011;6600;51.362;6.686;2023-06-14T04:15:16;2.77;;;1.93;;
13067;SDS011;6600;51.362;6.686;2023-06-14T04:17:42;2.93;;;2.30;;
13067;SDS011;6600;51.362;6.686;2023-06-14T04:20:07;2.50;;;2.30;;
13067;SDS011;6600;51.362;6.686;2023-06-14T04:22:34;4.87;;;2.40;;
13067;SDS011;6600;51.362;6.686;2023-06-14T04:25:01;2.40;;;2.03;;
13067;SDS011;6600;51.362;6.686;2023-06-14T04:27:27;3.40;;;1.97;;
13067;SDS011;6600;51.362;6.686;2023-06-14T04:29:55;4.10;;;2.40;;
13067;SDS011;6600;51.362;6.686;2023-06-14T04:32:28;3.10;;;2.37;;
13067;SDS011;6600;51.362;6.686;2023-06-14T04:34:57;5.10;;;2.47;;
13067;SDS011;6600;51.362;6.686;2023-06-14T04:37:24;3.20;;;2.30;;
13067;SDS011;6600;51.362;6.686;2023-06-14T04:39:53;5.57;;;3.57;;
13067;SDS011;6600;51.362;6.686;2023-06-14T04:42:20;7.20;;;3.57;;
13067;SDS011;6600;51.362;6.686;2023-06-14T04:44:50;5.47;;;3.00;;
13067;SDS011;6600;51.362;6.686;2023-06-14T04:47:17;4.53;;;2.80;;
13067;SDS011;6600;51.362;6.686;2023-06-14T04:49:43;7.70;;;3.10;;
13067;SDS011;6600;51.362;6.686;2023-06-14T04:52:09;9.37;;;3.20;;
13067;SDS011;6600;51.362;6.686;2023-06-14T04:54:38;7.33;;;3.77;;
13067;SDS011;6600;51.362;6.686;2023-06-14T04:57:07;6.07;;;3.03;;
13067;SDS011;6600;51.362;6.686;2023-06-14T04:59:34;2.50;;;2.00;;
13067;SDS011;6600;51.362;6.686;2023-06-14T05:02:00;2.20;;;2.00;;
13067;SDS011;6600;51.362;6.686;2023-06-14T05:04:26;3.30;;;2.17;;
13067;SDS011;6600;51.362;6.686;2023-06-14T05:06:53;4.23;;;2.03;;
13067;SDS011;6600;51.362;6.686;2023-06-14T05:09:19;4.80;;;2.80;;
13067;SDS011;6600;51.362;6.686;2023-06-14T05:11:45;3.23;;;1.93;;
13067;SDS011;6600;51.362;6.686;2023-06-14T05:14:10;3.60;;;2.07;;
13067;SDS011;6600;51.362;6.686;2023-06-14T05:16:36;2.63;;;1.73;;
13067;SDS011;6600;51.362;6.686;2023-06-14T05:19:02;4.60;;;1.97;;
13067;SDS011;6600;51.362;6.686;2023-06-14T05:21:29;2.47;;;1.63;;
13067;SDS011;6600;51.362;6.686;2023-06-14T05:23:55;2.13;;;1.80;;
13067;SDS011;6600;51.362;6.686;2023-06-14T05:26:21;2.93;;;1.93;;
13067;SDS011;6600;51.362;6.686;2023-06-14T05:28:48;3.17;;;2.10;;
13067;SDS011;6600;51.362;6.686;2023-06-14T05:31:14;2.30;;;2.10;;
13067;SDS011;6600;51.362;6.686;2023-06-14T05:33:40;3.27;;;2.10;;
13067;SDS011;6600;51.362;6.686;2023-06-14T05:36:05;2.50;;;2.23;;
13067;SDS011;6600;51.362;6.686;2023-06-14T05:38:30;2.87;;;2.10;;
13067;SDS011;6600;51.362;6.686;2023-06-14T05:40:56;1.83;;;1.53;;
13067;SDS011;6600;51.362;6.686;2023-06-14T05:43:21;3.20;;;2.07;;
13067;SDS011;6600;51.362;6.686;2023-06-14T05:45:47;4.70;;;2.00;;
13067;SDS011;6600;51.362;6.686;2023-06-14T05:48:13;2.00;;;1.90;;
13067;SDS011;6600;51.362;6.686;2023-06-14T05:50:38;1.97;;;1.80;;
13067;SDS011;6600;51.362;6.686;2023-06-14T05:53:03;4.27;;;2.10;;
13067;SDS011;6600;51.362;6.686;2023-06-14T05:55:29;2.57;;;2.07;;
13067;SDS011;6600;51.362;6.686;2023-06-14T05:57:54;1.60;;;1.50;;
13067;SDS011;6600;51.362;6.686;2023-06-14T06:00:19;3.60;;;1.97;;
13067;SDS011;6600;51.362;6.686;2023-06-14T06:02:45;1.83;;;1.67;;
13067;SDS011;6600;51.362;6.686;2023-06-14T06:05:12;2.63;;;2.00;;
13067;SDS011;6600;51.362;6.686;2023-06-14T06:07:38;3.83;;;1.80;;
13067;SDS011;6600;51.362;6.686;2023-06-14T06:10:09;1.73;;;1.63;;
13067;SDS011;6600;51.362;6.686;2023-06-14T06:12:35;1.50;;;1.40;;
13067;SDS011;6600;51.362;6.686;2023-06-14T06:15:00;3.70;;;1.83;;
13067;SDS011;6600;51.362;6.686;2023-06-14T06:17:26;3.60;;;1.83;;
13067;SDS011;6600;51.362;6.686;2023-06-14T06:19:51;3.60;;;1.83;;
13067;SDS011;6600;51.362;6.686;2023-06-14T06:22:17;3.50;;;2.00;;
13067;SDS011;6600;51.362;6.686;2023-06-14T06:24:42;2.40;;;1.70;;
13067;SDS011;6600;51.362;6.686;2023-06-14T06:27:08;2.47;;;1.80;;
13067;SDS011;6600;51.362;6.686;2023-06-14T06:29:34;1.83;;;1.50;;
13067;SDS011;6600;51.362;6.686;2023-06-14T06:32:00;1.83;;;1.63;;
13067;SDS011;6600;51.362;6.686;2023-06-14T06:34:25;1.73;;;1.40;;
13067;SDS011;6600;51.362;6.686;2023-06-14T06:36:51;2.23;;;1.53;;
13067;SDS011;6600;51.362;6.686;2023-06-14T06:39:16;1.73;;;1.63;;
13067;SDS011;6600;51.362;6.686;2023-06-14T06:41:41;3.43;;;1.57;;
13067;SDS011;6600;51.362;6.686;2023-06-14T06:44:07;1.70;;;1.60;;
13067;SDS011;6600;51.362;6.686;2023-06-14T06:46:38;1.43;;;1.33;;
13067;SDS011;6600;51.362;6.686;2023-06-14T06:49:08;1.80;;;1.70;;
13067;SDS011;6600;51.362;6.686;2023-06-14T06:51:36;2.43;;;1.77;;
13067;SDS011;6600;51.362;6.686;2023-06-14T06:54:02;1.70;;;1.60;;
13067;SDS011;6600;51.362;6.686;2023-06-14T06:56:27;1.50;;;1.40;;
13067;SDS011;6600;51.362;6.686;2023-06-14T06:58:53;1.87;;;1.47;;
13067;SDS011;6600;51.362;6.686;2023-06-14T07:01:18;1.67;;;1.57;;
13067;SDS011;6600;51.362;6.686;2023-06-14T07:03:44;3.17;;;1.40;;
13067;SDS011;6600;51.362;6.686;2023-06-14T07:06:10;1.30;;;1.20;;
13067;SDS011;6600;51.362;6.686;2023-06-14T07:08:36;1.30;;;1.20;;
13067;SDS011;6600;51.362;6.686;2023-06-14T07:11:03;2.33;;;1.33;;
13067;SDS011;6600;51.362;6.686;2023-06-14T07:13:41;1.23;;;1.10;;
13067;SDS011;6600;51.362;6.686;2023-06-14T07:16:29;1.17;;;1.00;;
13067;SDS011;6600;51.362;6.686;2023-06-14T07:18:55;1.17;;;1.07;;
13067;SDS011;6600;51.362;6.686;2023-06-14T07:21:20;0.87;;;0.87;;
13067;SDS011;6600;51.362;6.686;2023-06-14T07:24:06;1.20;;;1.10;;
13067;SDS011;6600;51.362;6.686;2023-06-14T07:26:32;0.90;;;0.90;;
13067;SDS011;6600;51.362;6.686;2023-06-14T07:28:58;0.93;;;0.93;;
13067;SDS011;6600;51.362;6.686;2023-06-14T07:31:24;1.07;;;0.87;;
13067;SDS011;6600;51.362;6.686;2023-06-14T07:33:49;1.37;;;1.07;;
13067;SDS011;6600;51.362;6.686;2023-06-14T07:36:15;0.90;;;0.90;;
13067;SDS011;6600;51.362;6.686;2023-06-14T07:38:40;1.17;;;1.07;;
13067;SDS011;6600;51.362;6.686;2023-06-14T07:41:06;1.07;;;0.90;;
13067;SDS011;6600;51.362;6.686;2023-06-14T07:43:31;0.80;;;0.80;;
13067;SDS011;6600;51.362;6.686;2023-06-14T07:45:56;1.13;;;1.07;;
13067;SDS011;6600;51.362;6.686;2023-06-14T07:48:22;1.17;;;1.07;;
13067;SDS011;6600;51.362;6.686;2023-06-14T07:50:48;2.37;;;1.00;;
13067;SDS011;6600;51.362;6.686;2023-06-14T07:53:13;1.17;;;0.87;;
13067;SDS011;6600;51.362;6.686;2023-06-14T07:55:38;1.37;;;1.03;;
13067;SDS011;6600;51.362;6.686;2023-06-14T07:58:04;1.20;;;1.10;;
13067;SDS011;6600;51.362;6.686;2023-06-14T08:00:32;1.10;;;1.00;;
13067;SDS011;6600;51.362;6.686;2023-06-14T08:02:58;1.50;;;1.20;;
13067;SDS011;6600;51.362;6.686;2023-06-14T08:05:24;0.90;;;0.90;;
13067;SDS011;6600;51.362;6.686;2023-06-14T08:07:51;1.60;;;1.23;;
13067;SDS011;6600;51.362;6.686;2023-06-14T08:10:16;1.87;;;1.00;;
13067;SDS011;6600;51.362;6.686;2023-06-14T08:12:42;2.47;;;1.30;;
13067;SDS011;6600;51.362;6.686;2023-06-14T08:15:10;1.43;;;1.13;;
13067;SDS011;6600;51.362;6.686;2023-06-14T08:17:47;0.80;;;0.80;;
13067;SDS011;6600;51.362;6.686;2023-06-14T08:20:13;0.90;;;0.90;;
13067;SDS011;6600;51.362;6.686;2023-06-14T08:22:41;1.00;;;1.00;;
13067;SDS011;6600;51.362;6.686;2023-06-14T08:25:07;1.23;;;0.93;;
13067;SDS011;6600;51.362;6.686;2023-06-14T08:27:33;2.43;;;1.23;;
13067;SDS011;6600;51.362;6.686;2023-06-14T08:29:59;1.43;;;1.10;;
13067;SDS011;6600;51.362;6.686;2023-06-14T08:32:24;1.40;;;1.00;;
13067;SDS011;6600;51.362;6.686;2023-06-14T08:34:50;0.97;;;0.93;;
13067;SDS011;6600;51.362;6.686;2023-06-14T08:37:15;1.30;;;1.20;;
13067;SDS011;6600;51.362;6.686;2023-06-14T08:39:41;0.90;;;0.90;;
13067;SDS011;6600;51.362;6.686;2023-06-14T08:42:07;1.03;;;0.93;;
13067;SDS011;6600;51.362;6.686;2023-06-14T08:44:34;1.20;;;0.97;;
13067;SDS011;6600;51.362;6.686;2023-06-14T08:46:59;0.97;;;0.97;;
13067;SDS011;6600;51.362;6.686;2023-06-14T08:49:25;1.20;;;1.20;;
13067;SDS011;6600;51.362;6.686;2023-06-14T08:51:57;0.83;;;0.83;;
13067;SDS011;6600;51.362;6.686;2023-06-14T08:54:27;1.67;;;1.40;;
13067;SDS011;6600;51.362;6.686;2023-06-14T08:56:57;1.73;;;1.07;;
13067;SDS011;6600;51.362;6.686;2023-06-14T08:59:26;1.17;;;0.90;;
13067;SDS011;6600;51.362;6.686;2023-06-14T09:01:51;2.47;;;1.47;;
13067;SDS011;6600;51.362;6.686;2023-06-14T09:04:23;1.57;;;1.10;;
13067;SDS011;6600;51.362;6.686;2023-06-14T09:06:54;0.80;;;0.80;;
13067;SDS011;6600;51.362;6.686;2023-06-14T09:09:20;1.37;;;1.27;;
13067;SDS011;6600;51.362;6.686;2023-06-14T09:11:47;1.67;;;0.90;;
13067;SDS011;6600;51.362;6.686;2023-06-14T09:14:14;1.40;;;1.30;;
13067;SDS011;6600;51.362;6.686;2023-06-14T09:16:40;1.87;;;0.87;;
13067;SDS011;6600;51.362;6.686;2023-06-14T09:19:05;1.50;;;1.40;;
13067;SDS011;6600;51.362;6.686;2023-06-14T09:21:33;1.93;;;1.07;;
13067;SDS011;6600;51.362;6.686;2023-06-14T09:24:01;1.30;;;1.20;;
13067;SDS011;6600;51.362;6.686;2023-06-14T09:26:27;1.13;;;1.10;;
13067;SDS011;6600;51.362;6.686;2023-06-14T09:28:52;1.30;;;1.20;;
13067;SDS011;6600;51.362;6.686;2023-06-14T09:31:20;1.50;;;1.40;;
13067;SDS011;6600;51.362;6.686;2023-06-14T09:33:46;1.40;;;1.30;;
13067;SDS011;6600;51.362;6.686;2023-06-14T09:36:16;1.50;;;1.30;;
13067;SDS011;6600;51.362;6.686;2023-06-14T09:41:34;1.40;;;1.30;;
13067;SDS011;6600;51.362;6.686;2023-06-14T09:44:04;1.77;;;1.67;;
13067;SDS011;6600;51.362;6.686;2023-06-14T09:46:34;1.87;;;1.70;;
13067;SDS011;6600;51.362;6.686;2023-06-14T09:49:00;1.43;;;1.33;;
13067;SDS011;6600;51.362;6.686;2023-06-14T09:51:27;1.57;;;1.47;;
13067;SDS011;6600;51.362;6.686;2023-06-14T09:53:55;2.13;;;1.50;;
13067;SDS011;6600;51.362;6.686;2023-06-14T09:56:32;1.10;;;1.10;;
13067;SDS011;6600;51.362;6.686;2023-06-14T09:59:01;1.53;;;1.20;;
13067;SDS011;6600;51.362;6.686;2023-06-14T10:01:30;0.93;;;0.80;;
13067;SDS011;6600;51.362;6.686;2023-06-14T10:04:02;1.50;;;1.03;;
13067;SDS011;6600;51.362;6.686;2023-06-14T10:06:29;1.13;;;1.10;;
13067;SDS011;6600;51.362;6.686;2023-06-14T10:08:59;1.63;;;1.20;;
13067;SDS011;6600;51.362;6.686;2023-06-14T10:11:25;0.80;;;0.80;;
13067;SDS011;6600;51.362;6.686;2023-06-14T10:13:56;0.80;;;0.80;;
13067;SDS011;6600;51.362;6.686;2023-06-14T10:21:59;1.17;;;1.07;;
13067;SDS011;6600;51.362;6.686;2023-06-14T10:24:41;1.13;;;1.03;;
13067;SDS011;6600;51.362;6.686;2023-06-14T10:27:08;0.70;;;0.70;;
13067;SDS011;6600;51.362;6.686;2023-06-14T10:32:17;1.30;;;0.90;;
13067;SDS011;6600;51.362;6.686;2023-06-14T10:34:44;1.20;;;0.90;;
13067;SDS011;6600;51.362;6.686;2023-06-14T10:37:13;0.80;;;0.80;;
13067;SDS011;6600;51.362;6.686;2023-06-14T10:42:10;0.90;;;0.90;;
13067;SDS011;6600;51.362;6.686;2023-06-14T10:44:45;0.70;;;0.70;;
13067;SDS011;6600;51.362;6.686;2023-06-14T10:47:24;0.80;;;0.80;;
13067;SDS011;6600;51.362;6.686;2023-06-14T10:49:54;1.03;;;0.90;;
13067;SDS011;6600;51.362;6.686;2023-06-14T10:52:22;0.80;;;0.80;;
13067;SDS011;6600;51.362;6.686;2023-06-14T10:54:59;0.70;;;0.70;;
13067;SDS011;6600;51.362;6.686;2023-06-14T10:57:48;1.17;;;1.07;;
13067;SDS011;6600;51.362;6.686;2023-06-14T11:00:17;0.90;;;0.90;;
13067;SDS011;6600;51.362;6.686;2023-06-14T11:05:48;1.00;;;1.00;;
13067;SDS011;6600;51.362;6.686;2023-06-14T11:11:13;1.27;;;1.10;;
13067;SDS011;6600;51.362;6.686;2023-06-14T11:13:41;1.13;;;1.13;;
13067;SDS011;6600;51.362;6.686;2023-06-14T11:16:14;0.63;;;0.63;;
13067;SDS011;6600;51.362;6.686;2023-06-14T11:18:41;0.70;;;0.70;;
13067;SDS011;6600;51.362;6.686;2023-06-14T11:21:07;0.80;;;0.80;;
13067;SDS011;6600;51.362;6.686;2023-06-14T11:23:34;0.90;;;0.60;;
13067;SDS011;6600;51.362;6.686;2023-06-14T11:25:59;1.03;;;0.87;;
13067;SDS011;6600;51.362;6.686;2023-06-14T11:28:34;0.90;;;0.57;;
13067;SDS011;6600;51.362;6.686;2023-06-14T11:31:03;2.00;;;0.80;;
13067;SDS011;6600;51.362;6.686;2023-06-14T11:33:28;0.83;;;0.83;;
13067;SDS011;6600;51.362;6.686;2023-06-14T11:35:54;0.80;;;0.80;;
13067;SDS011;6600;51.362;6.686;2023-06-14T11:41:58;1.20;;;1.00;;
13067;SDS011;6600;51.362;6.686;2023-06-14T11:44:36;1.90;;;0.83;;
13067;SDS011;6600;51.362;6.686;2023-06-14T11:47:03;0.93;;;0.93;;
13067;SDS011;6600;51.362;6.686;2023-06-14T11:49:28;2.40;;;1.10;;
13067;SDS011;6600;51.362;6.686;2023-06-14T11:51:54;1.20;;;1.10;;
13067;SDS011;6600;51.362;6.686;2023-06-14T11:54:19;2.50;;;1.57;;
13067;SDS011;6600;51.362;6.686;2023-06-14T11:56:45;0.90;;;0.83;;
13067;SDS011;6600;51.362;6.686;2023-06-14T11:59:10;0.80;;;0.80;;
13067;SDS011;6600;51.362;6.686;2023-06-14T12:01:38;1.10;;;1.10;;
13067;SDS011;6600;51.362;6.686;2023-06-14T12:04:04;1.10;;;1.00;;
13067;SDS011;6600;51.362;6.686;2023-06-14T12:06:30;1.03;;;1.03;;
13067;SDS011;6600;51.362;6.686;2023-06-14T12:09:02;1.33;;;0.80;;
13067;SDS011;6600;51.362;6.686;2023-06-14T12:11:32;1.10;;;0.90;;
13067;SDS011;6600;51.362;6.686;2023-06-14T12:13:59;1.37;;;1.33;;
13067;SDS011;6600;51.362;6.686;2023-06-14T12:16:29;0.80;;;0.80;;
13067;SDS011;6600;51.362;6.686;2023-06-14T12:18:59;0.90;;;0.90;;
13067;SDS011;6600;51.362;6.686;2023-06-14T12:21:26;1.17;;;1.00;;
13067;SDS011;6600;51.362;6.686;2023-06-14T12:23:53;1.60;;;1.00;;
13067;SDS011;6600;51.362;6.686;2023-06-14T12:26:19;2.10;;;1.47;;
13067;SDS011;6600;51.362;6.686;2023-06-14T12:28:45;2.80;;;1.27;;
13067;SDS011;6600;51.362;6.686;2023-06-14T12:31:12;1.93;;;1.27;;
13067;SDS011;6600;51.362;6.686;2023-06-14T12:33:39;1.20;;;1.10;;
13067;SDS011;6600;51.362;6.686;2023-06-14T12:36:09;1.00;;;1.00;;
13067;SDS011;6600;51.362;6.686;2023-06-14T12:38:36;1.20;;;1.20;;
13067;SDS011;6600;51.362;6.686;2023-06-14T12:41:02;1.13;;;1.00;;
13067;SDS011;6600;51.362;6.686;2023-06-14T12:43:28;0.87;;;0.87;;
13067;SDS011;6600;51.362;6.686;2023-06-14T12:45:53;1.23;;;1.13;;
13067;SDS011;6600;51.362;6.686;2023-06-14T12:48:19;3.13;;;1.87;;
13067;SDS011;6600;51.362;6.686;2023-06-14T12:50:44;12.37;;;6.63;;
13067;SDS011;6600;51.362;6.686;2023-06-14T12:53:09;2.53;;;1.73;;
13067;SDS011;6600;51.362;6.686;2023-06-14T12:55:35;0.90;;;0.90;;
13067;SDS011;6600;51.362;6.686;2023-06-14T12:58:01;0.80;;;0.80;;
13067;SDS011;6600;51.362;6.686;2023-06-14T13:00:26;0.73;;;0.73;;
13067;SDS011;6600;51.362;6.686;2023-06-14T13:02:52;0.90;;;0.90;;
13067;SDS011;6600;51.362;6.686;2023-06-14T13:05:18;4.40;;;1.73;;
13067;SDS011;6600;51.362;6.686;2023-06-14T13:07:43;1.27;;;1.17;;
13067;SDS011;6600;51.362;6.686;2023-06-14T13:10:09;1.20;;;1.10;;
13067;SDS011;6600;51.362;6.686;2023-06-14T13:12:35;1.00;;;1.00;;
13067;SDS011;6600;51.362;6.686;2023-06-14T13:15:01;1.30;;;1.20;;
13067;SDS011;6600;51.362;6.686;2023-06-14T13:17:26;1.27;;;1.17;;
13067;SDS011;6600;51.362;6.686;2023-06-14T13:19:52;1.00;;;1.00;;
13067;SDS011;6600;51.362;6.686;2023-06-14T13:22:17;1.10;;;1.03;;
13067;SDS011;6600;51.362;6.686;2023-06-14T13:24:43;1.20;;;0.90;;
13067;SDS011;6600;51.362;6.686;2023-06-14T13:27:08;1.10;;;1.00;;
13067;SDS011;6600;51.362;6.686;2023-06-14T13:29:34;0.90;;;0.90;;
13067;SDS011;6600;51.362;6.686;2023-06-14T13:32:01;1.00;;;1.00;;
13067;SDS011;6600;51.362;6.686;2023-06-14T13:34:27;0.80;;;0.80;;
13067;SDS011;6600;51.362;6.686;2023-06-14T13:36:52;2.40;;;1.10;;
13067;SDS011;6600;51.362;6.686;2023-06-14T13:39:18;1.20;;;1.10;;
13067;SDS011;6600;51.362;6.686;2023-06-14T13:41:44;1.53;;;1.30;;
13067;SDS011;6600;51.362;6.686;2023-06-14T13:44:09;1.60;;;1.43;;
13067;SDS011;6600;51.362;6.686;2023-06-14T13:46:39;1.27;;;1.27;;
13067;SDS011;6600;51.362;6.686;2023-06-14T13:49:04;1.33;;;1.10;;
13067;SDS011;6600;51.362;6.686;2023-06-14T13:51:30;2.77;;;1.60;;
13067;SDS011;6600;51.362;6.686;2023-06-14T13:53:55;1.70;;;1.60;;
13067;SDS011;6600;51.362;6.686;2023-06-14T13:56:21;2.63;;;2.20;;
13067;SDS011;6600;51.362;6.686;2023-06-14T13:58:49;3.07;;;2.30;;
13067;SDS011;6600;51.362;6.686;2023-06-14T14:01:14;1.63;;;1.53;;
13067;SDS011;6600;51.362;6.686;2023-06-14T14:03:40;1.60;;;1.50;;
13067;SDS011;6600;51.362;6.686;2023-06-14T14:06:05;1.30;;;1.23;;
13067;SDS011;6600;51.362;6.686;2023-06-14T14:08:32;1.60;;;1.50;;
13067;SDS011;6600;51.362;6.686;2023-06-14T14:10:58;4.17;;;2.00;;
13067;SDS011;6600;51.362;6.686;2023-06-14T14:13:23;1.20;;;1.10;;
13067;SDS011;6600;51.362;6.686;2023-06-14T14:15:50;1.60;;;1.37;;
13067;SDS011;6600;51.362;6.686;2023-06-14T14:18:15;1.60;;;1.50;;
13067;SDS011;6600;51.362;6.686;2023-06-14T14:20:41;2.23;;;1.20;;
13067;SDS011;6600;51.362;6.686;2023-06-14T14:23:06;1.30;;;1.20;;
13067;SDS011;6600;51.362;6.686;2023-06-14T14:25:32;1.30;;;1.20;;
13067;SDS011;6600;51.362;6.686;2023-06-14T14:27:57;1.10;;;1.10;;
13067;SDS011;6600;51.362;6.686;2023-06-14T14:30:22;1.30;;;1.20;;
13067;SDS011;6600;51.362;6.686;2023-06-14T14:32:49;1.50;;;1.40;;
13067;SDS011;6600;51.362;6.686;2023-06-14T14:35:16;1.20;;;1.10;;
13067;SDS011;6600;51.362;6.686;2023-06-14T14:37:41;2.87;;;1.70;;
13067;SDS011;6600;51.362;6.686;2023-06-14T14:40:07;1.30;;;1.20;;
13067;SDS011;6600;51.362;6.686;2023-06-14T14:42:34;1.53;;;1.43;;
13067;SDS011;6600;51.362;6.686;2023-06-14T14:44:59;1.50;;;1.40;;
13067;SDS011;6600;51.362;6.686;2023-06-14T14:47:25;1.50;;;1.40;;
13067;SDS011;6600;51.362;6.686;2023-06-14T14:49:50;1.50;;;1.40;;
13067;SDS011;6600;51.362;6.686;2023-06-14T14:52:15;2.27;;;1.67;;
13067;SDS011;6600;51.362;6.686;2023-06-14T14:54:41;2.23;;;1.73;;
13067;SDS011;6600;51.362;6.686;2023-06-14T14:57:06;2.57;;;1.50;;
13067;SDS011;6600;51.362;6.686;2023-06-14T14:59:32;2.33;;;2.00;;
13067;SDS011;6600;51.362;6.686;2023-06-14T15:01:57;1.80;;;1.70;;
13067;SDS011;6600;51.362;6.686;2023-06-14T15:04:22;1.60;;;1.40;;
13067;SDS011;6600;51.362;6.686;2023-06-14T15:06:48;1.70;;;1.60;;
13067;SDS011;6600;51.362;6.686;2023-06-14T15:09:13;1.93;;;1.70;;
13067;SDS011;6600;51.362;6.686;2023-06-14T15:11:39;2.60;;;1.63;;
13067;SDS011;6600;51.362;6.686;2023-06-14T15:14:05;1.53;;;1.40;;
13067;SDS011;6600;51.362;6.686;2023-06-14T15:16:30;1.93;;;1.80;;
13067;SDS011;6600;51.362;6.686;2023-06-14T15:18:56;1.37;;;1.20;;
13067;SDS011;6600;51.362;6.686;2023-06-14T15:21:21;1.80;;;1.70;;
13067;SDS011;6600;51.362;6.686;2023-06-14T15:23:47;1.40;;;1.30;;